メインページ
METAR-TAF:

METAR-TAF

空港 :

フナフティ国際空港

フナフティ島, ツバル

緯度: 08-31S, 経度: 179-13E, 海抜: 1m

現時点の気象観測

当レポートは15分前の20:00(UTC)に作成
の風 15kt
気温 29°C
湿度 84%
気圧 1008 hPa
視程: 4600m
高度1600ftの雲は散在している, 積乱雲.
高度10000ftの曇り
にわか雨

METAR: NGFU 112000Z 36015KT 9999 4600NE SHRA SCT016CB OVC100 29/26 Q1008

時間: 08:15 (20:15 UTC)

予報

当レポートは3時間2分前の17:13(UTC)に作成
予報は11日の 18時(UTC)から 12日の 18時(UTC)まで有効
の風 8kt
視程10km以上
高度1800ftの雲は散在している
高度4000ftの雲は散在している
高度10000ftの千切れ雲あり
弱いにわか雨
確率 40% :
11日の 18時(UTC)から 11日の 24時(UTC)まで一時的に
視程: 3000m
高度1500ftの千切れ雲あり
激しい雷雨, 雨

TAF: NGFU 111713Z 1118/1218 36008KT 9999 -SHRA SCT018 SCT040 BKN100 PROB40 TEMPO 1118/1124 3000 TSRA BKN015 FEW018CB?

4,000以上の空港の気象観測と天気予報(METAR報とTAF報)

利用可能な観測所は地図上に黄色い丸と赤い丸で示す。

丸の上にカーソルを重ねると観測所名を参照できる。

次にクリックすると気象観測と天気予報を参照できる。

マップの切り替え:黒色「×」印の緑ボタンをクリックして拡大、「-」印の緑ボタンをクリックして縮小、緑色の三角印をクリックして隣りの地図に切り替え


METAR-TAF: